METAR Data
IDs: Format: Raw Decoded Include TAF

Data at: 0722 UTC 28 Sep 2022

METAR for:KALS (Alamosa/Bergman Fld, CO, US)
Text:KALS 280652Z AUTO 00000KT 10SM OVC095 13/05 A3049 RMK AO2 SLP235 T01280050 402390017
Temperature: 12.8°C ( 55°F)
Dewpoint: 5.0°C ( 41°F) [RH = 59%]
Pressure (altimeter):30.49 inches Hg (1032.6 mb) [Sea level pressure: 1023.5 mb]
Winds:calm
Visibility:10 or more sm (16+ km)
Ceiling:9500 feet AGL
Clouds: overcast cloud deck at 9500 feet AGL
QC Flag:automated observation with no human augmentation